createdAt,value
2022-08-07T00:02:36.063Z,22.74
2022-08-07T00:05:04.226Z,22.67
2022-08-07T00:07:40.303Z,22.61
2022-08-07T00:10:26.599Z,22.57
2022-08-07T00:13:03.208Z,22.52
2022-08-07T00:15:51.293Z,22.48
2022-08-07T00:18:24.049Z,22.46
2022-08-07T00:21:03.518Z,22.44
2022-08-07T00:23:40.295Z,22.40
2022-08-07T00:26:18.697Z,22.35
2022-08-07T00:28:58.809Z,22.28
2022-08-07T00:31:37.973Z,22.20
2022-08-07T00:34:09.674Z,22.16
2022-08-07T00:36:42.999Z,22.13
2022-08-07T00:39:16.957Z,22.08
2022-08-07T00:42:02.181Z,22.04
2022-08-07T00:44:34.129Z,22.05
2022-08-07T00:47:04.079Z,22.03
2022-08-07T00:50:20.891Z,22.02
2022-08-07T00:52:23.031Z,21.94
2022-08-07T00:54:53.841Z,21.88
2022-08-07T00:57:26.517Z,21.85
2022-08-07T00:59:54.678Z,21.82
2022-08-07T01:02:28.527Z,21.76
2022-08-07T01:04:59.346Z,21.71
2022-08-07T01:07:29.782Z,21.71
2022-08-07T01:10:05.959Z,21.69
2022-08-07T01:12:43.951Z,21.68
2022-08-07T01:16:01.257Z,21.64
2022-08-07T01:18:16.871Z,21.61
2022-08-07T01:20:57.210Z,21.59
2022-08-07T01:23:38.743Z,21.60
2022-08-07T01:26:13.295Z,21.59
2022-08-07T01:28:51.707Z,21.55
2022-08-07T01:31:42.555Z,21.52
2022-08-07T01:34:14.395Z,21.51
2022-08-07T01:36:44.469Z,21.55
2022-08-07T01:39:25.067Z,21.54
2022-08-07T01:42:37.696Z,21.52
2022-08-07T01:45:02.907Z,21.48
2022-08-07T01:48:29.296Z,21.44
2022-08-07T01:50:28.652Z,21.43
2022-08-07T01:53:00.304Z,21.43
2022-08-07T01:55:37.491Z,21.42
2022-08-07T01:58:29.623Z,21.44
2022-08-07T02:01:10.329Z,21.44
2022-08-07T02:04:03.352Z,21.48
2022-08-07T02:06:35.707Z,21.47
2022-08-07T02:09:09.411Z,21.43
2022-08-07T02:12:03.310Z,21.40
2022-08-07T02:14:41.129Z,21.38
2022-08-07T02:17:24.979Z,21.36
2022-08-07T02:20:07.489Z,21.32
2022-08-07T02:22:47.265Z,21.26
2022-08-07T02:26:10.065Z,21.26
2022-08-07T02:28:24.460Z,21.23
2022-08-07T02:30:56.356Z,21.21
2022-08-07T02:33:41.949Z,21.15
2022-08-07T02:36:29.072Z,21.13
2022-08-07T02:39:15.972Z,21.12
2022-08-07T02:41:54.499Z,21.08
2022-08-07T02:44:36.609Z,21.04
2022-08-07T02:47:08.020Z,21.01
2022-08-07T02:49:58.571Z,20.99
2022-08-07T02:52:34.788Z,21.03
2022-08-07T02:55:27.998Z,21.01
2022-08-07T02:58:10.587Z,20.98
2022-08-07T03:00:41.915Z,20.94
2022-08-07T03:03:22.553Z,20.89
2022-08-07T03:05:56.512Z,20.85
2022-08-07T03:08:26.874Z,20.83
2022-08-07T03:11:00.225Z,20.81
2022-08-07T03:13:39.308Z,20.78
2022-08-07T03:16:18.681Z,20.75
2022-08-07T03:18:52.709Z,20.71
2022-08-07T03:21:21.227Z,20.69
2022-08-07T03:24:20.754Z,20.65
2022-08-07T03:26:53.555Z,20.60
2022-08-07T03:29:37.553Z,20.57
2022-08-07T03:32:12.879Z,20.54
2022-08-07T03:35:18.181Z,20.51
2022-08-07T03:37:53.265Z,20.50
2022-08-07T03:40:31.234Z,20.48
2022-08-07T03:43:13.572Z,20.48
2022-08-07T03:45:47.565Z,20.47
2022-08-07T03:48:17.500Z,20.47
2022-08-07T03:50:56.040Z,20.49
2022-08-07T03:53:50.248Z,20.47
2022-08-07T03:56:33.221Z,20.42
2022-08-07T03:59:09.517Z,20.40
2022-08-07T04:01:46.187Z,20.41
2022-08-07T04:04:17.950Z,20.42
2022-08-07T04:06:51.501Z,20.38
2022-08-07T04:09:23.049Z,20.37
2022-08-07T04:12:27.369Z,20.37
2022-08-07T04:14:46.210Z,20.33
2022-08-07T04:17:20.979Z,20.34
2022-08-07T04:19:54.808Z,20.36
2022-08-07T04:22:27.389Z,20.35
2022-08-07T04:24:58.013Z,20.38
2022-08-07T04:27:27.217Z,20.36
2022-08-07T04:30:02.708Z,20.34
2022-08-07T04:32:58.481Z,20.32
2022-08-07T04:35:29.898Z,20.30
2022-08-07T04:38:11.482Z,20.31
2022-08-07T04:40:51.804Z,20.32
2022-08-07T04:44:12.928Z,20.37
2022-08-07T04:47:04.131Z,20.43
2022-08-07T04:49:47.431Z,20.45
2022-08-07T04:52:53.706Z,20.49
2022-08-07T04:58:13.689Z,20.52
2022-08-07T04:59:17.479Z,20.61
2022-08-07T05:01:52.821Z,20.69
2022-08-07T05:04:36.252Z,20.79
2022-08-07T05:07:30.548Z,20.87
2022-08-07T05:10:20.064Z,20.94
2022-08-07T05:12:59.948Z,20.97
2022-08-07T05:15:43.785Z,21.02
2022-08-07T05:18:20.768Z,21.03
2022-08-07T05:20:53.926Z,21.03
2022-08-07T05:23:47.139Z,21.09
2022-08-07T05:26:23.938Z,21.12
2022-08-07T05:29:04.573Z,21.13
2022-08-07T05:31:38.714Z,21.13
2022-08-07T05:34:15.910Z,21.18
2022-08-07T05:36:53.873Z,21.25
2022-08-07T05:40:13.616Z,21.30
2022-08-07T05:42:17.926Z,21.34
2022-08-07T05:45:26.230Z,21.40
2022-08-07T05:48:01.690Z,21.37
2022-08-07T05:50:39.418Z,21.36
2022-08-07T05:54:13.096Z,21.34
2022-08-07T05:56:02.453Z,21.32
2022-08-07T05:58:39.343Z,21.25
2022-08-07T06:01:12.043Z,21.25
2022-08-07T06:03:58.637Z,21.27
2022-08-07T06:06:32.489Z,21.32
2022-08-07T06:09:05.114Z,21.40
2022-08-07T06:11:36.025Z,21.51
2022-08-07T06:14:12.684Z,21.59
2022-08-07T06:16:56.386Z,21.63
2022-08-07T06:19:49.926Z,21.66
2022-08-07T06:22:23.839Z,21.71
2022-08-07T06:25:14.839Z,21.83
2022-08-07T06:27:43.968Z,21.92
2022-08-07T06:30:35.637Z,22.01
2022-08-07T06:33:16.826Z,22.14
2022-08-07T06:36:06.526Z,22.26
2022-08-07T06:38:38.114Z,22.34
2022-08-07T06:42:00.377Z,22.40
2022-08-07T06:44:12.360Z,22.41
2022-08-07T06:46:41.537Z,22.40
2022-08-07T06:49:11.720Z,22.42
2022-08-07T06:51:49.329Z,22.47
2022-08-07T06:55:31.345Z,22.52
2022-08-07T06:57:09.741Z,22.59
2022-08-07T07:00:13.438Z,22.70
2022-08-07T07:02:53.838Z,22.80
2022-08-07T07:06:04.807Z,22.89
2022-08-07T07:08:18.696Z,23.00
2022-08-07T07:10:57.395Z,23.11
2022-08-07T07:13:57.661Z,23.20
2022-08-07T07:16:38.934Z,23.27
2022-08-07T07:19:55.578Z,23.34
2022-08-07T07:22:05.430Z,23.39
2022-08-07T07:24:58.326Z,23.43
2022-08-07T07:27:55.787Z,23.52
2022-08-07T07:30:38.593Z,23.63
2022-08-07T07:33:12.631Z,23.75
2022-08-07T07:36:05.602Z,23.86
2022-08-07T07:38:34.936Z,24.00
2022-08-07T07:41:09.200Z,24.06
2022-08-07T07:43:47.814Z,24.12
2022-08-07T07:46:36.484Z,24.18
2022-08-07T07:50:35.392Z,24.31
2022-08-07T07:52:18.365Z,24.47
2022-08-07T07:54:51.443Z,24.60
2022-08-07T07:57:50.318Z,24.75
2022-08-07T08:00:20.916Z,24.90
2022-08-07T08:03:08.420Z,25.07
2022-08-07T08:05:51.171Z,25.24
2022-08-07T08:08:34.550Z,25.41
2022-08-07T08:11:08.154Z,25.49
2022-08-07T08:13:54.521Z,25.52
2022-08-07T08:16:35.149Z,25.62
2022-08-07T08:19:17.366Z,25.76
2022-08-07T08:22:15.954Z,25.85
2022-08-07T08:25:18.530Z,25.90
2022-08-07T08:27:56.943Z,25.97
2022-08-07T08:30:27.886Z,26.04
2022-08-07T08:33:01.854Z,26.14
2022-08-07T08:35:43.061Z,26.23
2022-08-07T08:38:20.813Z,26.29
2022-08-07T08:40:53.238Z,26.34
2022-08-07T08:43:42.388Z,26.39
2022-08-07T08:46:27.195Z,26.48
2022-08-07T08:49:05.127Z,26.51
2022-08-07T08:52:13.304Z,26.52
2022-08-07T08:55:01.159Z,26.51
2022-08-07T08:57:54.163Z,26.51
2022-08-07T09:00:28.614Z,26.51
2022-08-07T09:03:08.334Z,26.53
2022-08-07T09:05:38.938Z,26.52
2022-08-07T09:08:24.245Z,26.49
2022-08-07T09:11:08.171Z,26.54
2022-08-07T09:14:13.017Z,26.68
2022-08-07T09:16:55.074Z,26.88
2022-08-07T09:19:53.676Z,26.99
2022-08-07T09:24:29.414Z,27.13
2022-08-07T09:25:29.312Z,27.28
2022-08-07T09:28:05.203Z,27.32
2022-08-07T09:30:57.058Z,27.37
2022-08-07T09:33:56.955Z,27.42
2022-08-07T09:36:49.542Z,27.47
2022-08-07T09:39:54.506Z,27.48
2022-08-07T09:42:22.763Z,27.54
2022-08-07T09:47:50.659Z,27.64
2022-08-07T09:48:12.255Z,27.73
2022-08-07T09:52:09.307Z,27.76
2022-08-07T09:54:08.299Z,27.74
2022-08-07T09:57:30.224Z,27.79
2022-08-07T10:00:14.667Z,27.84
2022-08-07T10:02:55.247Z,27.90
2022-08-07T10:06:01.236Z,27.97
2022-08-07T10:08:39.942Z,28.07
2022-08-07T10:12:02.327Z,28.14
2022-08-07T10:14:59.165Z,28.20
2022-08-07T10:18:02.564Z,28.25
2022-08-07T10:20:56.117Z,28.27
2022-08-07T10:24:06.112Z,28.28
2022-08-07T10:26:57.979Z,28.28
2022-08-07T10:30:00.656Z,28.31
2022-08-07T10:32:52.969Z,28.42
2022-08-07T10:35:55.159Z,28.52
2022-08-07T10:38:42.259Z,28.58
2022-08-07T10:41:51.452Z,28.60
2022-08-07T10:44:45.500Z,28.62
2022-08-07T10:47:51.624Z,28.65
2022-08-07T10:50:25.956Z,28.68
2022-08-07T10:53:22.608Z,28.68
2022-08-07T10:55:56.609Z,28.70
2022-08-07T10:58:40.314Z,28.77
2022-08-07T11:01:51.979Z,28.83
2022-08-07T11:04:51.360Z,28.88
2022-08-07T11:07:59.045Z,28.91
2022-08-07T11:10:27.305Z,29.02
2022-08-07T11:14:41.876Z,29.14
2022-08-07T11:16:30.552Z,29.26
2022-08-07T11:19:04.245Z,29.34
2022-08-07T11:21:46.837Z,29.36
2022-08-07T11:24:24.225Z,29.37
2022-08-07T11:27:13.451Z,29.42
2022-08-07T11:30:09.995Z,29.47
2022-08-07T11:32:46.079Z,29.41
2022-08-07T11:35:26.984Z,29.37
2022-08-07T11:38:28.470Z,29.34
2022-08-07T11:41:22.315Z,29.28
2022-08-07T11:44:19.185Z,29.26
2022-08-07T11:47:10.470Z,29.28
2022-08-07T11:50:30.530Z,29.34
2022-08-07T11:52:54.023Z,29.32
2022-08-07T11:56:11.990Z,29.27
2022-08-07T11:58:54.704Z,29.29
2022-08-07T12:02:00.599Z,29.33
2022-08-07T12:04:53.410Z,29.36
2022-08-07T12:07:38.929Z,29.45
2022-08-07T12:10:19.670Z,29.50
2022-08-07T12:13:11.627Z,29.54
2022-08-07T12:16:06.760Z,29.62
2022-08-07T12:18:45.509Z,29.69
2022-08-07T12:22:36.392Z,29.76
2022-08-07T12:26:21.572Z,29.79
2022-08-07T12:29:02.655Z,29.80
2022-08-07T12:32:04.133Z,29.77
2022-08-07T12:34:49.531Z,29.76
2022-08-07T12:37:28.278Z,29.79
2022-08-07T12:40:46.658Z,29.86
2022-08-07T12:44:02.762Z,29.90
2022-08-07T12:46:06.688Z,29.95
2022-08-07T12:49:09.820Z,30.00
2022-08-07T12:52:14.011Z,30.04
2022-08-07T12:55:02.820Z,30.12
2022-08-07T12:57:59.503Z,30.20
2022-08-07T13:00:50.020Z,30.21
2022-08-07T13:03:26.930Z,30.17
2022-08-07T13:06:30.410Z,30.21
2022-08-07T13:10:19.563Z,30.21
2022-08-07T13:12:42.296Z,30.22
2022-08-07T13:15:33.438Z,30.24
2022-08-07T13:18:07.912Z,30.27
2022-08-07T13:20:51.120Z,30.28
2022-08-07T13:24:00.856Z,30.30
2022-08-07T13:26:26.803Z,30.32
2022-08-07T13:29:16.148Z,30.37
2022-08-07T13:32:31.459Z,30.34
2022-08-07T13:36:00.513Z,30.35
2022-08-07T13:38:24.276Z,30.37
2022-08-07T13:41:15.747Z,30.43
2022-08-07T13:43:52.392Z,30.47
2022-08-07T13:46:33.374Z,30.51
2022-08-07T13:49:19.738Z,30.51
2022-08-07T13:52:22.861Z,30.52
2022-08-07T13:54:49.298Z,30.54
2022-08-07T13:57:23.799Z,30.56
2022-08-07T13:59:56.183Z,30.57
2022-08-07T14:02:33.280Z,30.62
2022-08-07T14:05:05.248Z,30.64
2022-08-07T14:07:59.578Z,30.62
2022-08-07T14:10:42.079Z,30.60
2022-08-07T14:13:16.676Z,30.57
2022-08-07T14:15:56.909Z,30.55
2022-08-07T14:18:49.746Z,30.55
2022-08-07T14:22:03.134Z,30.57
2022-08-07T14:24:45.900Z,30.59
2022-08-07T14:28:12.698Z,30.58
2022-08-07T14:30:11.785Z,30.54
2022-08-07T14:33:05.377Z,30.47
2022-08-07T14:35:45.292Z,30.43
2022-08-07T14:38:26.231Z,30.45
2022-08-07T14:41:14.671Z,30.48
2022-08-07T14:46:37.356Z,30.48
2022-08-07T14:49:57.099Z,30.48
2022-08-07T14:52:22.330Z,30.45
2022-08-07T14:54:58.470Z,30.43
2022-08-07T14:57:54.942Z,30.44
2022-08-07T15:03:19.284Z,30.45
2022-08-07T15:05:54.863Z,30.45
2022-08-07T15:11:50.929Z,30.43
2022-08-07T15:14:25.397Z,30.40
2022-08-07T15:17:11.597Z,30.34
2022-08-07T15:20:30.905Z,30.30
2022-08-07T15:25:46.700Z,30.18
2022-08-07T15:28:34.616Z,30.14
2022-08-07T15:31:12.268Z,30.14
2022-08-07T15:34:02.096Z,30.14
2022-08-07T15:37:03.231Z,30.16
2022-08-07T15:42:51.759Z,30.11
2022-08-07T15:45:22.892Z,30.07
2022-08-07T15:48:02.080Z,30.01
2022-08-07T15:50:37.838Z,29.93
2022-08-07T15:53:51.588Z,29.88
2022-08-07T15:56:34.735Z,29.85
2022-08-07T15:59:16.340Z,29.81
2022-08-07T16:02:01.891Z,29.78
2022-08-07T16:04:33.713Z,29.78
2022-08-07T16:08:32.439Z,29.79
2022-08-07T16:10:05.841Z,29.77
2022-08-07T16:13:01.184Z,29.73
2022-08-07T16:16:43.346Z,29.66
2022-08-07T16:19:04.097Z,29.59
2022-08-07T16:22:04.196Z,29.52
2022-08-07T16:24:56.512Z,29.45
2022-08-07T16:27:40.697Z,29.39
2022-08-07T16:30:30.460Z,29.34
2022-08-07T16:34:01.437Z,29.25
2022-08-07T16:36:31.109Z,29.20
2022-08-07T16:39:40.421Z,29.16
2022-08-07T16:42:27.686Z,29.06
2022-08-07T16:46:40.520Z,28.96
2022-08-07T16:48:34.361Z,28.89
2022-08-07T16:51:54.470Z,28.85
2022-08-07T16:54:22.767Z,28.80
2022-08-07T16:58:02.701Z,28.75
2022-08-07T17:00:29.363Z,28.67
2022-08-07T17:03:58.420Z,28.60
2022-08-07T17:07:02.719Z,28.52
2022-08-07T17:10:06.764Z,28.45
2022-08-07T17:12:44.172Z,28.35
2022-08-07T17:15:16.057Z,28.29
2022-08-07T17:17:47.905Z,28.22
2022-08-07T17:20:37.513Z,28.19
2022-08-07T17:23:32.057Z,28.16
2022-08-07T17:26:03.802Z,28.07
2022-08-07T17:28:59.392Z,28.00
2022-08-07T17:32:02.518Z,27.93
2022-08-07T17:35:33.011Z,27.83
2022-08-07T17:38:11.435Z,27.71
2022-08-07T17:40:40.238Z,27.66
2022-08-07T17:43:19.081Z,27.57
2022-08-07T17:46:21.080Z,27.51
2022-08-07T17:49:23.910Z,27.43
2022-08-07T17:52:12.814Z,27.37
2022-08-07T17:54:54.053Z,27.30
2022-08-07T17:57:56.434Z,27.23
2022-08-07T18:00:33.666Z,27.15
2022-08-07T18:03:25.555Z,27.08
2022-08-07T18:06:09.222Z,26.97
2022-08-07T18:09:00.571Z,26.88
2022-08-07T18:12:16.403Z,26.79
2022-08-07T18:14:47.088Z,26.71
2022-08-07T18:18:44.852Z,26.63
2022-08-07T18:21:12.802Z,26.58
2022-08-07T18:23:43.838Z,26.51
2022-08-07T18:26:19.361Z,26.43
2022-08-07T18:30:05.749Z,26.34
2022-08-07T18:32:14.061Z,26.24
2022-08-07T18:35:16.017Z,26.17
2022-08-07T18:38:59.082Z,26.07
2022-08-07T18:41:17.111Z,25.98
2022-08-07T18:44:16.375Z,25.91
2022-08-07T18:47:00.449Z,25.80
2022-08-07T18:50:33.432Z,25.72
2022-08-07T18:53:12.363Z,25.62
2022-08-07T18:56:12.641Z,25.56
2022-08-07T18:58:51.282Z,25.47
2022-08-07T19:02:19.816Z,25.40
2022-08-07T19:05:15.416Z,25.32
2022-08-07T19:08:09.339Z,25.25
2022-08-07T19:10:51.467Z,25.19
2022-08-07T19:13:27.549Z,25.13
2022-08-07T19:16:43.715Z,25.06
2022-08-07T19:19:03.426Z,25.00
2022-08-07T19:21:51.471Z,24.95
2022-08-07T19:24:37.075Z,24.89
2022-08-07T19:28:29.980Z,24.83
2022-08-07T19:30:55.312Z,24.79
2022-08-07T19:33:10.070Z,24.72
2022-08-07T19:35:42.555Z,24.67
2022-08-07T19:38:17.145Z,24.65
2022-08-07T19:40:49.249Z,24.61
2022-08-07T19:43:44.075Z,24.56
2022-08-07T19:46:14.695Z,24.51
2022-08-07T19:48:53.593Z,24.46
2022-08-07T19:51:50.693Z,24.39
2022-08-07T19:54:34.344Z,24.32
2022-08-07T19:57:51.476Z,24.25
2022-08-07T20:00:02.266Z,24.20
2022-08-07T20:02:53.773Z,24.15
2022-08-07T20:05:59.716Z,24.07
2022-08-07T20:08:25.353Z,24.02
2022-08-07T20:11:01.890Z,23.96
2022-08-07T20:13:41.759Z,23.92
2022-08-07T20:16:32.329Z,23.88
2022-08-07T20:19:10.033Z,23.81
2022-08-07T20:21:47.564Z,23.74
2022-08-07T20:24:23.085Z,23.69
2022-08-07T20:26:55.852Z,23.64
2022-08-07T20:29:47.062Z,23.64
2022-08-07T20:32:39.768Z,23.58
2022-08-07T20:35:26.056Z,23.49
2022-08-07T20:37:58.915Z,23.45
2022-08-07T20:40:34.302Z,23.39
2022-08-07T20:43:09.431Z,23.32
2022-08-07T20:46:28.340Z,23.30
2022-08-07T20:48:36.167Z,23.25
2022-08-07T20:51:09.433Z,23.22
2022-08-07T20:54:03.609Z,23.18
2022-08-07T20:56:33.547Z,23.15
2022-08-07T20:59:05.373Z,23.10
2022-08-07T21:01:45.289Z,23.06
2022-08-07T21:04:22.947Z,23.03
2022-08-07T21:07:03.990Z,23.00
2022-08-07T21:09:52.373Z,22.96
2022-08-07T21:12:31.104Z,22.95
2022-08-07T21:15:05.565Z,22.94
2022-08-07T21:18:02.919Z,22.88
2022-08-07T21:20:29.972Z,22.84
2022-08-07T21:23:08.759Z,22.80
2022-08-07T21:26:24.885Z,22.77
2022-08-07T21:29:00.737Z,22.73
2022-08-07T21:32:41.868Z,22.71
2022-08-07T21:34:48.838Z,22.67
2022-08-07T21:37:26.018Z,22.64
2022-08-07T21:40:07.094Z,22.64
2022-08-07T21:43:00.106Z,22.64
2022-08-07T21:46:08.335Z,22.60
2022-08-07T21:48:56.978Z,22.56
2022-08-07T21:51:32.351Z,22.51
2022-08-07T21:54:05.187Z,22.43
2022-08-07T21:56:57.499Z,22.37
2022-08-07T22:00:04.109Z,22.31
2022-08-07T22:02:52.523Z,22.26
2022-08-07T22:05:45.655Z,22.25
2022-08-07T22:08:19.929Z,22.25
2022-08-07T22:10:53.942Z,22.24
2022-08-07T22:13:52.758Z,22.20
2022-08-07T22:16:41.671Z,22.17
2022-08-07T22:19:49.752Z,22.13
2022-08-07T22:22:28.772Z,22.10
2022-08-07T22:25:11.133Z,22.10
2022-08-07T22:28:29.587Z,22.10
2022-08-07T22:31:06.996Z,22.10
2022-08-07T22:33:56.192Z,22.08
2022-08-07T22:36:42.181Z,22.06
2022-08-07T22:39:26.321Z,21.97
2022-08-07T22:42:19.043Z,21.94
2022-08-07T22:44:58.862Z,21.94
2022-08-07T22:47:55.345Z,21.92
2022-08-07T22:50:43.401Z,21.87
2022-08-07T22:54:08.013Z,21.80
2022-08-07T22:56:28.890Z,21.75
2022-08-07T22:59:18.724Z,21.74
2022-08-07T23:02:23.635Z,21.68
2022-08-07T23:06:07.095Z,21.66
2022-08-07T23:08:22.594Z,21.62
2022-08-07T23:11:13.233Z,21.53
2022-08-07T23:14:16.507Z,21.45
2022-08-07T23:17:15.609Z,21.35
2022-08-07T23:20:51.828Z,21.32
2022-08-07T23:24:05.393Z,21.23
2022-08-07T23:26:23.524Z,21.15
2022-08-07T23:29:42.721Z,21.07
2022-08-07T23:34:20.070Z,21.03
2022-08-07T23:35:23.836Z,21.01
2022-08-07T23:38:01.174Z,20.93
2022-08-07T23:40:53.814Z,20.86
2022-08-07T23:43:44.220Z,20.83
2022-08-07T23:46:35.536Z,20.87
2022-08-07T23:49:49.999Z,20.85
2022-08-07T23:52:58.713Z,20.85
2022-08-07T23:55:52.168Z,20.84
2022-08-07T23:58:55.190Z,20.79
